Terminal Aerodrome Forecast
Issued by NWS Dallas/Fort Worth, TX

Home | Current Version | Previous Version | Text Only | Print | Product List | Glossary On
Versions: 1 2 3 4 5 6 7 8 9 10 11 12 13 14 15 16 17 18 19 20 21 22 23 24 25 26 27 28 29 30 31 32
000
FTUS44 KFWD 181512 AAA
TAFACT
TAF AMD
KACT 181512Z 1815/1912 12004KT 1SM BR OVC003
     FM181700 13005KT 3SM BR OVC006
     FM182000 15006KT 6SM BR BKN012
     FM190200 15006KT 5SM BR OVC008
     FM190500 16007KT 2SM -RA BR OVC004=

USA.gov is the U.S. government's official web portal to all federal, state and local government web resources and services.